createdAt,value
2023-02-09T00:00:33.033Z,16.30
2023-02-09T00:01:35.730Z,14.75
2023-02-09T00:02:38.920Z,17.20
2023-02-09T00:03:41.870Z,14.60
2023-02-09T00:04:44.448Z,22.52
2023-02-09T00:05:46.962Z,20.70
2023-02-09T00:06:49.485Z,19.38
2023-02-09T00:07:52.127Z,15.77
2023-02-09T00:08:54.782Z,17.98
2023-02-09T00:09:57.532Z,14.85
2023-02-09T00:11:00.415Z,16.23
2023-02-09T00:12:21.652Z,15.15
2023-02-09T00:13:25.378Z,22.73
2023-02-09T00:14:28.264Z,14.70
2023-02-09T00:15:31.259Z,17.85
2023-02-09T00:16:34.315Z,16.38
2023-02-09T00:17:37.628Z,13.10
2023-02-09T00:18:40.751Z,17.27
2023-02-09T00:19:43.867Z,11.73
2023-02-09T00:20:47.324Z,14.07
2023-02-09T00:21:50.468Z,13.70
2023-02-09T00:22:53.597Z,14.82
2023-02-09T00:23:56.833Z,15.50
2023-02-09T00:24:59.967Z,13.95
2023-02-09T00:26:06.440Z,12.85
2023-02-09T00:27:09.680Z,15.98
2023-02-09T00:28:12.812Z,14.00
2023-02-09T00:29:17.486Z,10.90
2023-02-09T00:30:20.721Z,15.70
2023-02-09T00:31:23.915Z,16.25
2023-02-09T00:32:27.085Z,14.45
2023-02-09T00:33:30.210Z,18.42
2023-02-09T00:34:33.451Z,16.55
2023-02-09T00:35:41.253Z,11.20
2023-02-09T00:36:44.372Z,15.65
2023-02-09T00:37:47.506Z,17.38
2023-02-09T00:38:50.618Z,13.38
2023-02-09T00:39:53.981Z,14.45
2023-02-09T00:40:57.100Z,14.65
2023-02-09T00:42:11.416Z,14.95
2023-02-09T00:43:14.626Z,15.93
2023-02-09T00:44:18.112Z,17.88
2023-02-09T00:45:22.072Z,11.10
2023-02-09T00:46:25.192Z,14.60
2023-02-09T00:47:28.552Z,14.52
2023-02-09T00:48:33.115Z,14.23
2023-02-09T00:49:36.350Z,16.02
2023-02-09T00:50:39.595Z,13.68
2023-02-09T00:51:42.607Z,13.52
2023-02-09T00:52:45.480Z,13.27
2023-02-09T00:53:48.364Z,16.38
2023-02-09T00:54:51.003Z,12.25
2023-02-09T00:55:53.889Z,15.88
2023-02-09T00:56:56.771Z,10.73
2023-02-09T00:57:59.287Z,14.45
2023-02-09T00:59:01.983Z,13.23
2023-02-09T01:00:09.430Z,16.20
2023-02-09T01:01:13.746Z,10.63
2023-02-09T01:02:16.623Z,16.33
2023-02-09T01:03:19.146Z,14.73
2023-02-09T01:04:22.430Z,12.45
2023-02-09T01:05:25.097Z,14.35
2023-02-09T01:06:27.742Z,13.68
2023-02-09T01:07:32.303Z,17.63
2023-02-09T01:08:35.825Z,14.13
2023-02-09T01:09:38.347Z,16.50
2023-02-09T01:10:43.041Z,13.73
2023-02-09T01:11:46.029Z,10.98
2023-02-09T01:12:48.792Z,13.27
2023-02-09T01:13:51.317Z,14.50
2023-02-09T01:14:53.958Z,12.32
2023-02-09T01:15:56.433Z,14.40
2023-02-09T01:16:59.291Z,12.40
2023-02-09T01:18:01.958Z,13.75
2023-02-09T01:19:04.600Z,13.00
2023-02-09T01:20:09.075Z,11.95
2023-02-09T01:21:19.638Z,13.85
2023-02-09T01:22:22.515Z,11.25
2023-02-09T01:23:25.045Z,12.23
2023-02-09T01:24:27.822Z,13.10
2023-02-09T01:25:30.320Z,11.88
2023-02-09T01:26:33.080Z,17.33
2023-02-09T01:27:35.939Z,10.13
2023-02-09T01:28:38.815Z,14.50
2023-02-09T01:29:41.366Z,12.45
2023-02-09T01:30:44.463Z,14.00
2023-02-09T01:31:47.810Z,9.55
2023-02-09T01:32:52.879Z,17.08
2023-02-09T01:33:57.201Z,13.43
2023-02-09T01:35:02.744Z,12.32
2023-02-09T01:36:05.607Z,10.88
2023-02-09T01:37:08.244Z,13.07
2023-02-09T01:38:10.763Z,15.18
2023-02-09T01:39:14.128Z,10.13
2023-02-09T01:40:16.659Z,13.75
2023-02-09T01:41:19.293Z,9.43
2023-02-09T01:42:22.052Z,10.57
2023-02-09T01:43:24.572Z,9.43
2023-02-09T01:44:30.223Z,15.52
2023-02-09T01:45:48.616Z,13.02
2023-02-09T01:46:51.098Z,15.88
2023-02-09T01:48:04.298Z,15.27
2023-02-09T01:49:17.262Z,10.65
2023-02-09T01:50:20.399Z,9.35
2023-02-09T01:51:23.498Z,11.30
2023-02-09T01:52:29.380Z,9.95
2023-02-09T01:53:33.103Z,11.57
2023-02-09T01:54:38.156Z,10.10
2023-02-09T01:55:49.302Z,9.40
2023-02-09T01:57:02.627Z,13.10
2023-02-09T01:58:11.628Z,12.32
2023-02-09T01:59:15.472Z,14.52
2023-02-09T02:00:19.549Z,11.20
2023-02-09T02:01:23.081Z,17.63
2023-02-09T02:02:25.821Z,15.98
2023-02-09T02:03:29.772Z,12.57
2023-02-09T02:04:33.841Z,15.18
2023-02-09T02:05:39.601Z,9.88
2023-02-09T02:06:42.358Z,12.48
2023-02-09T02:07:56.883Z,11.27
2023-02-09T02:09:10.327Z,11.10
2023-02-09T02:10:12.847Z,13.07
2023-02-09T02:11:17.902Z,11.38
2023-02-09T02:12:21.127Z,12.50
2023-02-09T02:13:24.007Z,14.55
2023-02-09T02:14:35.658Z,13.15
2023-02-09T02:16:22.577Z,11.90
2023-02-09T02:17:37.217Z,10.27
2023-02-09T02:18:45.621Z,11.73
2023-02-09T02:20:13.337Z,8.52
2023-02-09T02:21:28.218Z,12.32
2023-02-09T02:23:04.100Z,10.35
2023-02-09T02:24:28.343Z,7.60
2023-02-09T02:25:52.584Z,8.63
2023-02-09T02:26:59.311Z,9.57
2023-02-09T02:28:37.708Z,8.43
2023-02-09T02:30:05.553Z,9.00
2023-02-09T02:31:30.357Z,11.15
2023-02-09T02:32:43.595Z,7.97
2023-02-09T02:34:05.798Z,11.70
2023-02-09T02:35:19.480Z,11.57
2023-02-09T02:36:47.681Z,10.20
2023-02-09T02:38:02.210Z,8.25
2023-02-09T02:39:29.685Z,19.67
2023-02-09T02:40:44.821Z,13.43
2023-02-09T02:42:22.249Z,9.07
2023-02-09T02:43:44.094Z,8.13
2023-02-09T02:44:56.576Z,11.05
2023-02-09T02:46:06.024Z,10.15
2023-02-09T02:47:12.786Z,11.25
2023-02-09T02:48:25.032Z,10.77
2023-02-09T02:49:43.147Z,10.40
2023-02-09T02:50:55.205Z,11.98
2023-02-09T02:52:03.672Z,11.20
2023-02-09T02:53:09.317Z,10.90
2023-02-09T02:54:18.674Z,13.00
2023-02-09T02:55:25.877Z,8.32
2023-02-09T02:56:35.729Z,9.18
2023-02-09T02:57:43.644Z,9.25
2023-02-09T02:58:49.523Z,9.10
2023-02-09T02:59:57.685Z,10.75
2023-02-09T03:01:03.115Z,9.00
2023-02-09T03:02:11.852Z,10.57
2023-02-09T03:03:19.915Z,9.82
2023-02-09T03:04:23.305Z,8.75
2023-02-09T03:05:27.880Z,9.90
2023-02-09T03:06:33.337Z,11.43
2023-02-09T03:07:36.394Z,10.48
2023-02-09T03:08:53.196Z,10.70
2023-02-09T03:09:56.790Z,18.23
2023-02-09T03:10:59.433Z,9.15
2023-02-09T03:12:19.712Z,8.70
2023-02-09T03:13:34.670Z,11.32
2023-02-09T03:14:48.408Z,13.23
2023-02-09T03:16:13.377Z,10.63
2023-02-09T03:17:35.796Z,8.18
2023-02-09T03:19:03.122Z,13.60
2023-02-09T03:20:17.562Z,9.88
2023-02-09T03:21:41.529Z,7.03
2023-02-09T03:22:52.367Z,10.68
2023-02-09T03:25:23.692Z,11.20
2023-02-09T03:26:31.361Z,10.52
2023-02-09T03:27:40.627Z,9.25
2023-02-09T03:28:46.125Z,12.68
2023-02-09T03:29:53.545Z,7.88
2023-02-09T03:30:58.303Z,9.50
2023-02-09T03:32:02.377Z,11.07
2023-02-09T03:33:05.445Z,9.55
2023-02-09T03:34:09.769Z,8.07
2023-02-09T03:35:16.710Z,10.00
2023-02-09T03:36:20.809Z,10.57
2023-02-09T03:37:24.066Z,8.00
2023-02-09T03:38:27.770Z,8.25
2023-02-09T03:39:30.408Z,9.57
2023-02-09T03:40:34.494Z,11.07
2023-02-09T03:41:38.214Z,8.40
2023-02-09T03:42:40.740Z,11.80
2023-02-09T03:44:01.748Z,8.20
2023-02-09T03:45:04.618Z,12.68
2023-02-09T03:46:07.186Z,11.77
2023-02-09T03:47:10.260Z,9.73
2023-02-09T03:48:12.801Z,10.57
2023-02-09T03:49:15.419Z,11.02
2023-02-09T03:50:18.176Z,8.25
2023-02-09T03:51:20.698Z,9.07
2023-02-09T03:52:23.218Z,10.18
2023-02-09T03:53:25.739Z,9.63
2023-02-09T03:54:32.339Z,10.95
2023-02-09T03:55:35.938Z,10.85
2023-02-09T03:56:38.465Z,9.90
2023-02-09T03:57:40.866Z,7.47
2023-02-09T03:58:43.380Z,9.48
2023-02-09T03:59:45.798Z,8.50
2023-02-09T04:00:48.329Z,8.40
2023-02-09T04:01:52.416Z,7.78
2023-02-09T04:02:54.907Z,10.85
2023-02-09T04:03:58.869Z,9.95
2023-02-09T04:05:01.426Z,8.52
2023-02-09T04:06:04.403Z,6.88
2023-02-09T04:07:07.278Z,8.82
2023-02-09T04:08:09.914Z,6.18
2023-02-09T04:09:13.157Z,11.18
2023-02-09T04:10:15.821Z,7.32
2023-02-09T04:11:18.319Z,7.35
2023-02-09T04:12:20.842Z,10.82
2023-02-09T04:13:24.206Z,10.60
2023-02-09T04:14:26.865Z,8.25
2023-02-09T04:15:29.372Z,11.00
2023-02-09T04:16:32.377Z,9.35
2023-02-09T04:17:35.032Z,7.07
2023-02-09T04:18:37.652Z,10.88
2023-02-09T04:19:40.291Z,8.25
2023-02-09T04:20:43.599Z,8.63
2023-02-09T04:21:46.535Z,10.30
2023-02-09T04:22:49.419Z,8.88
2023-02-09T04:23:52.299Z,8.95
2023-02-09T04:24:55.302Z,9.75
2023-02-09T04:25:58.302Z,8.10
2023-02-09T04:27:01.306Z,7.63
2023-02-09T04:28:04.578Z,8.88
2023-02-09T04:29:07.686Z,7.63
2023-02-09T04:30:11.278Z,12.90
2023-02-09T04:31:14.757Z,6.55
2023-02-09T04:32:17.874Z,7.75
2023-02-09T04:33:22.676Z,6.68
2023-02-09T04:34:25.809Z,10.57
2023-02-09T04:35:29.042Z,12.77
2023-02-09T04:36:32.166Z,10.02
2023-02-09T04:37:35.284Z,9.32
2023-02-09T04:38:38.406Z,10.82
2023-02-09T04:39:41.534Z,8.05
2023-02-09T04:40:44.838Z,8.73
2023-02-09T04:41:48.132Z,10.70
2023-02-09T04:42:51.260Z,10.68
2023-02-09T04:43:54.376Z,11.23
2023-02-09T04:44:57.618Z,10.60
2023-02-09T04:46:01.188Z,7.35
2023-02-09T04:47:04.345Z,10.48
2023-02-09T04:48:08.422Z,8.77
2023-02-09T04:49:12.024Z,9.43
2023-02-09T04:50:15.409Z,9.88
2023-02-09T04:51:18.751Z,8.10
2023-02-09T04:52:21.990Z,9.07
2023-02-09T04:53:25.477Z,10.18
2023-02-09T04:54:28.838Z,11.00
2023-02-09T04:55:32.078Z,8.60
2023-02-09T04:56:35.247Z,10.38
2023-02-09T04:57:56.799Z,12.77
2023-02-09T04:59:18.046Z,9.32
2023-02-09T05:00:21.404Z,8.43
2023-02-09T05:01:25.771Z,11.52
2023-02-09T05:02:28.607Z,9.20
2023-02-09T05:03:32.044Z,12.13
2023-02-09T05:04:34.854Z,9.10
2023-02-09T05:05:40.610Z,10.80
2023-02-09T05:06:43.255Z,12.95
2023-02-09T05:07:45.829Z,11.00
2023-02-09T05:08:49.018Z,10.90
2023-02-09T05:09:51.590Z,12.18
2023-02-09T05:10:55.504Z,7.95
2023-02-09T05:11:58.075Z,8.77
2023-02-09T05:13:00.907Z,9.75
2023-02-09T05:14:03.476Z,12.10
2023-02-09T05:15:06.356Z,8.80
2023-02-09T05:16:13.578Z,9.77
2023-02-09T05:17:21.050Z,13.82
2023-02-09T05:18:24.118Z,10.15
2023-02-09T05:19:26.640Z,10.80
2023-02-09T05:20:29.159Z,9.85
2023-02-09T05:21:31.638Z,12.68
2023-02-09T05:22:34.400Z,12.25
2023-02-09T05:23:36.859Z,9.02
2023-02-09T05:24:39.605Z,12.60
2023-02-09T05:25:42.366Z,15.02
2023-02-09T05:26:44.893Z,9.65
2023-02-09T05:27:47.647Z,9.18
2023-02-09T05:28:50.284Z,10.75
2023-02-09T05:29:52.892Z,13.00
2023-02-09T05:30:55.453Z,10.70
2023-02-09T05:31:58.041Z,12.30
2023-02-09T05:33:01.209Z,15.25
2023-02-09T05:34:03.732Z,11.82
2023-02-09T05:35:08.331Z,11.52
2023-02-09T05:36:12.915Z,9.18
2023-02-09T05:37:15.487Z,12.45
2023-02-09T05:38:18.735Z,14.15
2023-02-09T05:39:21.256Z,10.23
2023-02-09T05:40:24.022Z,12.27
2023-02-09T05:41:45.014Z,9.48
2023-02-09T05:43:50.037Z,11.10
2023-02-09T05:44:52.700Z,8.80
2023-02-09T05:45:55.263Z,10.98
2023-02-09T05:46:57.744Z,10.25
2023-02-09T05:48:00.624Z,10.98
2023-02-09T05:49:03.377Z,10.77
2023-02-09T05:50:06.135Z,11.18
2023-02-09T05:51:08.660Z,8.25
2023-02-09T05:52:12.645Z,9.18
2023-02-09T05:53:15.324Z,16.77
2023-02-09T05:54:18.143Z,9.27
2023-02-09T05:55:20.659Z,11.30
2023-02-09T05:56:23.181Z,11.25
2023-02-09T05:57:25.708Z,13.05
2023-02-09T05:58:28.229Z,9.50
2023-02-09T05:59:31.100Z,13.85
2023-02-09T06:00:33.622Z,9.50
2023-02-09T06:01:36.157Z,11.10
2023-02-09T06:02:38.946Z,11.15
2023-02-09T06:03:41.435Z,14.10
2023-02-09T06:04:44.067Z,11.90
2023-02-09T06:05:46.592Z,12.48
2023-02-09T06:06:49.229Z,12.05
2023-02-09T06:07:51.749Z,12.90
2023-02-09T06:08:54.273Z,11.68
2023-02-09T06:09:56.919Z,12.68
2023-02-09T06:10:59.690Z,8.68
2023-02-09T06:12:02.197Z,15.32
2023-02-09T06:13:04.735Z,14.35
2023-02-09T06:14:07.243Z,15.25
2023-02-09T06:15:10.723Z,17.73
2023-02-09T06:16:13.251Z,15.30
2023-02-09T06:17:16.007Z,12.65
2023-02-09T06:18:18.645Z,13.98
2023-02-09T06:19:21.769Z,12.32
2023-02-09T06:20:24.408Z,12.68
2023-02-09T06:21:27.053Z,10.00
2023-02-09T06:22:31.855Z,12.00
2023-02-09T06:23:35.379Z,13.88
2023-02-09T06:24:38.215Z,13.48
2023-02-09T06:25:41.345Z,9.98
2023-02-09T06:26:44.395Z,8.50
2023-02-09T06:27:47.232Z,15.13
2023-02-09T06:28:50.120Z,16.35
2023-02-09T06:29:53.588Z,17.65
2023-02-09T06:30:56.679Z,11.90
2023-02-09T06:31:59.821Z,13.65
2023-02-09T06:33:03.189Z,16.23
2023-02-09T06:34:06.318Z,13.02
2023-02-09T06:35:09.450Z,18.33
2023-02-09T06:36:12.557Z,13.25
2023-02-09T06:37:15.685Z,11.18
2023-02-09T06:38:19.041Z,10.32
2023-02-09T06:39:22.163Z,11.90
2023-02-09T06:40:25.404Z,15.63
2023-02-09T06:41:28.646Z,19.27
2023-02-09T06:42:44.229Z,10.57
2023-02-09T06:43:47.489Z,15.52
2023-02-09T06:44:50.745Z,8.75
2023-02-09T06:45:54.488Z,14.23
2023-02-09T06:46:57.578Z,12.95
2023-02-09T06:48:00.701Z,9.65
2023-02-09T06:49:04.058Z,10.88
2023-02-09T06:50:07.300Z,15.05
2023-02-09T06:51:12.942Z,11.35
2023-02-09T06:52:16.307Z,14.07
2023-02-09T06:53:19.550Z,9.98
2023-02-09T06:54:23.267Z,12.18
2023-02-09T06:55:26.750Z,11.60
2023-02-09T06:56:30.232Z,11.77
2023-02-09T06:57:33.473Z,12.25
2023-02-09T06:58:37.556Z,14.80
2023-02-09T06:59:40.799Z,16.50
2023-02-09T07:00:44.332Z,8.80
2023-02-09T07:01:54.140Z,13.77
2023-02-09T07:02:59.911Z,11.77
2023-02-09T07:04:03.151Z,14.68
2023-02-09T07:05:06.487Z,13.05
2023-02-09T07:06:14.290Z,10.77
2023-02-09T07:07:16.933Z,12.73
2023-02-09T07:08:19.691Z,12.18
2023-02-09T07:09:22.229Z,10.57
2023-02-09T07:10:25.336Z,10.60
2023-02-09T07:11:28.103Z,9.75
2023-02-09T07:12:30.677Z,12.93
2023-02-09T07:13:33.800Z,10.20
2023-02-09T07:14:36.436Z,11.25
2023-02-09T07:15:38.976Z,9.73
2023-02-09T07:16:41.722Z,14.32
2023-02-09T07:17:44.306Z,10.60
2023-02-09T07:18:46.970Z,10.25
2023-02-09T07:19:50.188Z,11.63
2023-02-09T07:21:21.556Z,12.00
2023-02-09T07:22:25.833Z,10.50
2023-02-09T07:23:29.120Z,11.40
2023-02-09T07:24:31.641Z,11.70
2023-02-09T07:25:34.280Z,11.60
2023-02-09T07:26:36.760Z,9.27
2023-02-09T07:27:43.401Z,13.35
2023-02-09T07:28:46.572Z,13.10
2023-02-09T07:29:49.282Z,12.45
2023-02-09T07:30:53.281Z,11.20
2023-02-09T07:31:55.852Z,13.50
2023-02-09T07:32:58.407Z,13.32
2023-02-09T07:34:00.930Z,11.15
2023-02-09T07:35:03.453Z,10.68
2023-02-09T07:36:08.127Z,10.40
2023-02-09T07:37:10.905Z,11.00
2023-02-09T07:38:14.009Z,9.80
2023-02-09T07:39:16.666Z,13.70
2023-02-09T07:40:19.527Z,11.07
2023-02-09T07:41:27.689Z,12.23
2023-02-09T07:42:30.208Z,11.77
2023-02-09T07:43:36.580Z,10.27
2023-02-09T07:44:39.092Z,11.63
2023-02-09T07:45:42.094Z,7.85
2023-02-09T07:46:44.917Z,11.45
2023-02-09T07:47:47.495Z,11.05
2023-02-09T07:48:50.371Z,10.50
2023-02-09T07:49:53.137Z,8.32
2023-02-09T07:50:56.010Z,11.77
2023-02-09T07:51:58.530Z,13.10
2023-02-09T07:53:01.180Z,12.18
2023-02-09T07:54:06.569Z,10.65
2023-02-09T07:55:12.947Z,9.98
2023-02-09T07:56:15.460Z,14.93
2023-02-09T07:57:17.980Z,10.70
2023-02-09T07:58:22.057Z,14.80
2023-02-09T07:59:24.575Z,11.65
2023-02-09T08:00:27.245Z,13.68
2023-02-09T08:01:29.753Z,12.00
2023-02-09T08:02:36.818Z,11.23
2023-02-09T08:03:41.617Z,10.60
2023-02-09T08:04:44.792Z,12.30
2023-02-09T08:05:56.383Z,9.15
2023-02-09T08:06:59.262Z,11.20
2023-02-09T08:08:01.907Z,10.88
2023-02-09T08:09:05.522Z,10.10
2023-02-09T08:10:08.146Z,11.15
2023-02-09T08:11:11.511Z,9.02
2023-02-09T08:12:14.071Z,11.32
2023-02-09T08:13:16.688Z,10.73
2023-02-09T08:14:48.629Z,10.82
2023-02-09T08:15:55.851Z,12.82
2023-02-09T08:17:23.318Z,11.48
2023-02-09T08:18:32.043Z,12.55
2023-02-09T08:19:34.962Z,11.02
2023-02-09T08:20:37.566Z,10.55
2023-02-09T08:21:44.527Z,11.60
2023-02-09T08:22:51.011Z,10.98
2023-02-09T08:23:57.152Z,11.68
2023-02-09T08:25:03.626Z,9.90
2023-02-09T08:26:10.110Z,12.05
2023-02-09T08:27:13.135Z,12.25
2023-02-09T08:28:16.160Z,9.90
2023-02-09T08:29:19.100Z,8.55
2023-02-09T08:30:22.115Z,11.90
2023-02-09T08:31:25.194Z,12.48
2023-02-09T08:32:28.348Z,12.77
2023-02-09T08:33:31.347Z,14.85
2023-02-09T08:34:34.352Z,14.10
2023-02-09T08:35:37.597Z,10.95
2023-02-09T08:36:41.792Z,10.75
2023-02-09T08:37:45.031Z,10.80
2023-02-09T08:38:48.635Z,13.77
2023-02-09T08:39:51.760Z,11.43
2023-02-09T08:40:54.878Z,10.40
2023-02-09T08:41:58.003Z,13.82
2023-02-09T08:43:01.123Z,11.63
2023-02-09T08:44:04.365Z,12.63
2023-02-09T08:45:08.313Z,8.98
2023-02-09T08:46:13.801Z,11.93
2023-02-09T08:47:17.090Z,11.30
2023-02-09T08:48:20.333Z,12.93
2023-02-09T08:49:23.455Z,11.13
2023-02-09T08:50:26.576Z,9.85
2023-02-09T08:51:29.819Z,8.88
2023-02-09T08:52:32.940Z,11.45
2023-02-09T08:53:36.665Z,11.00
2023-02-09T08:54:39.785Z,13.75
2023-02-09T08:55:42.910Z,10.75
2023-02-09T08:56:45.907Z,14.68
2023-02-09T08:57:49.029Z,8.50
2023-02-09T08:58:52.523Z,10.73
2023-02-09T08:59:55.758Z,9.73
2023-02-09T09:01:00.372Z,9.10
2023-02-09T09:02:03.561Z,12.05
2023-02-09T09:03:07.527Z,10.27
2023-02-09T09:04:10.885Z,13.15
2023-02-09T09:05:14.962Z,14.13
2023-02-09T09:06:18.093Z,11.27
2023-02-09T09:07:21.205Z,12.35
2023-02-09T09:08:24.328Z,12.70
2023-02-09T09:09:27.331Z,10.88
2023-02-09T09:10:31.060Z,12.98
2023-02-09T09:11:34.053Z,9.75
2023-02-09T09:12:37.896Z,9.57
2023-02-09T09:13:42.226Z,15.65
2023-02-09T09:14:44.859Z,11.32
2023-02-09T09:15:47.872Z,9.95
2023-02-09T09:16:50.850Z,12.20
2023-02-09T09:17:53.558Z,11.57
2023-02-09T09:18:56.323Z,11.52
2023-02-09T09:19:58.956Z,11.23
2023-02-09T09:21:01.601Z,12.90
2023-02-09T09:22:04.627Z,12.75
2023-02-09T09:23:07.839Z,14.77
2023-02-09T09:24:10.484Z,15.20
2023-02-09T09:25:12.964Z,13.63
2023-02-09T09:26:16.733Z,11.00
2023-02-09T09:27:19.320Z,11.65
2023-02-09T09:28:22.517Z,13.63
2023-02-09T09:29:25.370Z,15.43
2023-02-09T09:30:28.002Z,11.30
2023-02-09T09:31:33.594Z,11.45
2023-02-09T09:32:36.229Z,14.50
2023-02-09T09:33:39.049Z,11.82
2023-02-09T09:34:41.931Z,11.40
2023-02-09T09:35:44.752Z,11.38
2023-02-09T09:36:47.309Z,9.20
2023-02-09T09:37:49.969Z,12.30
2023-02-09T09:38:52.632Z,11.77
2023-02-09T09:39:55.254Z,15.38
2023-02-09T09:40:57.782Z,13.25
2023-02-09T09:42:01.224Z,9.93
2023-02-09T09:43:07.617Z,12.48
2023-02-09T09:44:24.776Z,12.05
2023-02-09T09:45:30.539Z,10.55
2023-02-09T09:46:39.129Z,12.95
2023-02-09T09:47:43.978Z,11.80
2023-02-09T09:48:52.019Z,12.02
2023-02-09T09:49:54.660Z,12.77
2023-02-09T09:51:02.583Z,11.32
2023-02-09T09:52:26.355Z,13.48
2023-02-09T09:53:35.344Z,13.25
2023-02-09T09:54:38.104Z,12.27
2023-02-09T09:55:41.248Z,14.13
2023-02-09T09:56:43.985Z,11.10
2023-02-09T09:57:46.867Z,11.30
2023-02-09T09:58:50.341Z,12.43
2023-02-09T09:59:53.984Z,9.07
2023-02-09T10:00:57.505Z,14.05
2023-02-09T10:02:06.424Z,16.75
2023-02-09T10:03:16.154Z,10.57
2023-02-09T10:04:20.902Z,12.73
2023-02-09T10:05:28.869Z,12.77
2023-02-09T10:06:35.718Z,13.43
2023-02-09T10:07:41.721Z,13.25
2023-02-09T10:09:19.513Z,10.30
2023-02-09T10:10:51.438Z,10.73
2023-02-09T10:12:12.074Z,10.45
2023-02-09T10:13:25.157Z,10.30
2023-02-09T10:14:28.038Z,13.82
2023-02-09T10:15:33.813Z,11.68
2023-02-09T10:16:39.964Z,11.70
2023-02-09T10:17:42.344Z,9.13
2023-02-09T10:18:45.921Z,10.00
2023-02-09T10:20:04.765Z,14.02
2023-02-09T10:21:11.128Z,10.68
2023-02-09T10:22:13.885Z,13.98
2023-02-09T10:23:39.937Z,16.00
2023-02-09T10:24:42.577Z,12.60
2023-02-09T10:25:48.279Z,13.68
2023-02-09T10:27:08.325Z,15.23
2023-02-09T10:28:29.842Z,14.63
2023-02-09T10:29:32.623Z,15.43
2023-02-09T10:30:35.460Z,12.13
2023-02-09T10:31:54.976Z,12.70
2023-02-09T10:33:00.704Z,11.88
2023-02-09T10:34:14.386Z,10.93
2023-02-09T10:35:28.546Z,8.93
2023-02-09T10:36:37.066Z,12.45
2023-02-09T10:37:40.313Z,9.07
2023-02-09T10:38:43.312Z,9.48
2023-02-09T10:39:55.077Z,11.45
2023-02-09T10:40:59.996Z,14.45
2023-02-09T10:42:25.675Z,10.80
2023-02-09T10:43:34.573Z,12.25
2023-02-09T10:44:40.349Z,11.23
2023-02-09T10:45:46.382Z,12.70
2023-02-09T10:46:50.173Z,14.70
2023-02-09T10:48:08.887Z,12.25
2023-02-09T10:49:36.373Z,12.45
2023-02-09T10:50:53.536Z,14.38
2023-02-09T10:52:11.897Z,12.93
2023-02-09T10:53:48.733Z,13.77
2023-02-09T10:55:00.254Z,14.65
2023-02-09T10:56:16.590Z,12.20
2023-02-09T10:57:28.593Z,12.85
2023-02-09T10:58:34.943Z,14.57
2023-02-09T10:59:41.662Z,12.68
2023-02-09T11:01:01.444Z,10.50
2023-02-09T11:02:04.711Z,10.30
2023-02-09T11:03:18.040Z,14.15
2023-02-09T11:04:27.194Z,12.63
2023-02-09T11:05:32.802Z,13.10
2023-02-09T11:06:49.236Z,10.68
2023-02-09T11:08:13.366Z,13.15
2023-02-09T11:09:25.129Z,10.32
2023-02-09T11:10:31.129Z,9.43
2023-02-09T11:11:36.530Z,10.93
2023-02-09T11:12:39.659Z,12.20
2023-02-09T11:13:42.789Z,13.60
2023-02-09T11:14:45.651Z,13.57
2023-02-09T11:16:07.058Z,12.45
2023-02-09T11:17:25.256Z,14.85
2023-02-09T11:18:34.151Z,12.43
2023-02-09T11:19:58.199Z,10.95
2023-02-09T11:21:40.916Z,12.23
2023-02-09T11:22:43.509Z,13.00
2023-02-09T11:24:18.312Z,10.20
2023-02-09T11:25:43.576Z,11.35
2023-02-09T11:26:55.323Z,10.90
2023-02-09T11:28:15.782Z,10.70
2023-02-09T11:29:30.486Z,11.82
2023-02-09T11:30:48.271Z,12.20
2023-02-09T11:32:27.203Z,10.18
2023-02-09T11:34:00.485Z,13.13
2023-02-09T11:35:17.644Z,12.18
2023-02-09T11:36:41.135Z,13.73
2023-02-09T11:38:05.529Z,11.13
2023-02-09T11:39:20.538Z,12.55
2023-02-09T11:40:36.493Z,13.23
2023-02-09T11:42:23.740Z,13.52
2023-02-09T11:43:37.931Z,11.35
2023-02-09T11:45:24.618Z,9.40
2023-02-09T11:46:31.511Z,15.15
2023-02-09T11:48:00.018Z,15.30
2023-02-09T11:49:18.126Z,14.18
2023-02-09T11:50:30.498Z,13.73
2023-02-09T11:51:38.056Z,11.70
2023-02-09T11:52:49.821Z,11.15
2023-02-09T11:54:11.190Z,11.45
2023-02-09T11:55:41.903Z,12.77
2023-02-09T11:56:55.702Z,12.63
2023-02-09T11:58:12.759Z,10.80
2023-02-09T11:59:38.783Z,11.48
2023-02-09T12:00:56.267Z,13.65
2023-02-09T12:02:23.672Z,13.55
2023-02-09T12:03:26.904Z,10.52
2023-02-09T12:04:40.826Z,12.23
2023-02-09T12:05:44.908Z,15.85
2023-02-09T12:06:54.697Z,14.35
2023-02-09T12:08:19.834Z,11.55
2023-02-09T12:09:30.870Z,11.75
2023-02-09T12:10:38.909Z,13.07
2023-02-09T12:11:59.558Z,13.73
2023-02-09T12:13:10.471Z,16.52
2023-02-09T12:14:24.032Z,13.48
2023-02-09T12:15:36.891Z,16.65
2023-02-09T12:16:43.479Z,14.25
2023-02-09T12:17:57.402Z,14.13
2023-02-09T12:19:00.288Z,11.02
2023-02-09T12:20:03.758Z,13.63
2023-02-09T12:21:07.848Z,12.68
2023-02-09T12:22:35.164Z,11.93
2023-02-09T12:23:45.546Z,14.55
2023-02-09T12:25:15.888Z,13.13
2023-02-09T12:26:21.298Z,13.10
2023-02-09T12:27:26.591Z,16.05
2023-02-09T12:28:31.916Z,11.70
2023-02-09T12:29:39.917Z,14.98
2023-02-09T12:30:42.522Z,13.65
2023-02-09T12:32:03.690Z,12.60
2023-02-09T12:33:24.253Z,12.38
2023-02-09T12:34:51.417Z,14.70
2023-02-09T12:36:05.103Z,10.40
2023-02-09T12:37:13.392Z,13.05
2023-02-09T12:38:22.149Z,14.88
2023-02-09T12:39:29.003Z,14.45
2023-02-09T12:40:38.592Z,11.65
2023-02-09T12:41:41.592Z,10.45
2023-02-09T12:42:53.484Z,14.95
2023-02-09T12:44:11.605Z,12.68
2023-02-09T12:45:42.485Z,14.63
2023-02-09T12:46:45.676Z,11.50
2023-02-09T12:48:01.654Z,14.57
2023-02-09T12:49:23.245Z,18.58
2023-02-09T12:50:48.926Z,12.50
2023-02-09T12:51:52.778Z,14.50
2023-02-09T12:53:23.860Z,18.77
2023-02-09T12:55:58.413Z,12.20
2023-02-09T12:57:22.652Z,17.02
2023-02-09T12:58:38.858Z,14.95
2023-02-09T12:59:50.845Z,16.48
2023-02-09T13:00:55.571Z,11.05
2023-02-09T13:02:14.267Z,16.73
2023-02-09T13:03:20.749Z,16.92
2023-02-09T13:04:24.237Z,14.27
2023-02-09T13:05:37.551Z,43.72
2023-02-09T13:06:47.274Z,23.10
2023-02-09T13:08:04.794Z,35.63
2023-02-09T13:09:15.480Z,53.50
2023-02-09T13:10:28.202Z,29.80
2023-02-09T13:11:46.805Z,15.55
2023-02-09T13:12:56.408Z,23.17
2023-02-09T13:14:04.809Z,45.60
2023-02-09T13:15:16.571Z,19.38
2023-02-09T13:16:39.924Z,39.30
2023-02-09T13:17:48.736Z,55.75
2023-02-09T13:19:09.869Z,49.20
2023-02-09T13:20:18.505Z,23.73
2023-02-09T13:21:39.742Z,37.83
2023-02-09T13:22:48.389Z,29.77
2023-02-09T13:24:08.185Z,29.40
2023-02-09T13:25:22.999Z,21.80
2023-02-09T13:26:29.553Z,15.50
2023-02-09T13:27:32.195Z,13.85
2023-02-09T13:28:34.763Z,16.40
2023-02-09T13:29:37.406Z,17.20
2023-02-09T13:30:40.285Z,14.70
2023-02-09T13:31:50.885Z,16.58
2023-02-09T13:33:03.448Z,14.57
2023-02-09T13:34:38.088Z,17.60
2023-02-09T13:36:00.894Z,13.43
2023-02-09T13:37:06.103Z,16.27
2023-02-09T13:38:21.628Z,16.90
2023-02-09T13:39:26.852Z,14.43
2023-02-09T13:40:32.373Z,18.00
2023-02-09T13:41:38.077Z,17.27
2023-02-09T13:42:55.190Z,14.20
2023-02-09T13:43:58.182Z,17.55
2023-02-09T13:45:01.143Z,13.95
2023-02-09T13:46:04.047Z,17.00
2023-02-09T13:47:13.057Z,14.80
2023-02-09T13:48:33.911Z,16.50
2023-02-09T13:50:47.631Z,16.40
2023-02-09T13:52:09.482Z,22.95
2023-02-09T13:53:12.117Z,17.45
2023-02-09T13:54:19.569Z,13.65
2023-02-09T13:55:25.299Z,15.38
2023-02-09T13:56:29.386Z,13.05
2023-02-09T13:57:35.987Z,14.95
2023-02-09T13:58:39.897Z,15.93
2023-02-09T13:59:43.665Z,18.83
2023-02-09T14:00:51.647Z,17.85
2023-02-09T14:01:54.946Z,18.45
2023-02-09T14:03:12.490Z,14.32
2023-02-09T14:04:17.992Z,17.65
2023-02-09T14:05:27.244Z,15.82
2023-02-09T14:07:04.322Z,16.73
2023-02-09T14:08:08.035Z,14.55
2023-02-09T14:09:44.421Z,15.23
2023-02-09T14:10:55.557Z,16.77
2023-02-09T14:12:09.702Z,12.63
2023-02-09T14:13:20.394Z,14.43
2023-02-09T14:14:28.558Z,15.95
2023-02-09T14:16:02.040Z,14.85
2023-02-09T14:17:25.932Z,16.52
2023-02-09T14:18:33.381Z,14.85
2023-02-09T14:19:35.769Z,13.30
2023-02-09T14:20:39.240Z,14.63
2023-02-09T14:21:41.644Z,15.07
2023-02-09T14:22:44.403Z,20.55
2023-02-09T14:24:30.603Z,22.08
2023-02-09T14:25:33.364Z,14.45
2023-02-09T14:26:46.929Z,15.40
2023-02-09T14:27:49.454Z,16.65
2023-02-09T14:29:29.080Z,16.77
2023-02-09T14:30:36.391Z,13.57
2023-02-09T14:31:55.097Z,18.42
2023-02-09T14:33:00.495Z,14.40
2023-02-09T14:34:03.017Z,15.98
2023-02-09T14:35:20.056Z,16.75
2023-02-09T14:36:34.463Z,15.60
2023-02-09T14:37:37.474Z,13.50
2023-02-09T14:38:42.912Z,13.35
2023-02-09T14:40:06.574Z,14.15
2023-02-09T14:41:30.266Z,17.48